メインページ
METAR-TAF:

METAR-TAF

空港 :

エルサルバドル, エルサルバドル

エルサルバドル国際空港

緯度: 13-26N, 経度: 089-03W, 海抜: 25m

現時点の気象観測

当レポートは46分前の21:50(UTC)に作成
南/南東の風 5kt、から南/南西の間で変化する
気温 33°C
湿度 63%
気圧 1008 hPa
視程10km以上
高度3700ftの雲はほとんどない

METAR: MSLP 262150Z 16005KT 090V210 9999 FEW037 33/25 Q1008 A2978 NOSIG

時間: 16:36 (22:36 UTC)

予報

当レポートは6時間36分前の16:00(UTC)に作成
予報は26日の 18時(UTC)から 27日の 18時(UTC)まで有効
南西の風 8kt
視程10km以上
高度2300ftの雲は散在している
高度3300ftの雲はほとんどない, 積乱雲.
27日の 0100時(UTC)から
変向風 3kt
視程10km以上
高度2000ftの雲はほとんどない
高度3300ftの雲はほとんどない, 積乱雲.
高度6000ftの雲は散在している
27日の 1200時(UTC)から
東/北東の風 3kt
視程10km以上
高度2300ftの雲はほとんどない

TAF: MSLP 261600Z 2618/2718 22008KT 9999 SCT023 FEW033CB TX33/2618Z TN23/2710Z FM270100 VRB03KT 9999 FEW020 FEW033CB SCT060 FM271200 06003KT 9999 FEW023

4,000以上の空港の気象観測と天気予報(METAR報とTAF報)

利用可能な観測所は地図上に黄色い丸と赤い丸で示す。

丸の上にカーソルを重ねると観測所名を参照できる。

次にクリックすると気象観測と天気予報を参照できる。

マップの切り替え:黒色「×」印の緑ボタンをクリックして拡大、「-」印の緑ボタンをクリックして縮小、緑色の三角印をクリックして隣りの地図に切り替え


METAR-TAF: